Easton, WA

6:08 AM PDT on September 02, 2014 (GMT -0700)
Pineloch Sun 2 | Change Station
CLOSE
Current Station
Personal Weather Station
Location: Ronald, WA
Elevation: 2612 ft
Nearby Weather Stations

Elev 2612 ft 47.25 °N, 121.05 °W | Updated 6 seconds ago

Partly Cloudy
Partly Cloudy
54.0 °F
Feels Like 54.0 °F
N
1.0
Wind Variable Wind from NE
Gusts 3.0 mph

Today
High -- | Low -- °F
--% Chance of Precip.
Yesterday
High -- | Low -- °F
Precip. -- in
6:25 AM 7:42 PM
Waxing Crescent, 51% visible
Pressure 29.94 in
Visibility 0.2 miles
Clouds
Dew Point 47 °F
Humidity 77%
Rainfall 0.00 in
Snow Depth 0 in , 0 in , 0 in
UV Not available.
Pollen 2.50 out of 12
Air Quality Not available.
Flu Activity Not available.
METAR KSMP 021256Z AUTO VRB03KT 1/4SM FG VV001 09/08 A2997 RMK AO2 SLP139 T00890078 $

More Conditions Fewer Conditions

Pressure 29.94 in
Visibility 0.2 miles
Clouds
Dew Point 47 °F
Humidity 77%
Rainfall 0.00 in
Snow Depth 0 in , 0 in , 0 in
UV Not available.
Pollen 2.50 out of 12
Air Quality Not available.
Flu Activity Not available.
METAR KSMP 021256Z AUTO VRB03KT 1/4SM FG VV001 09/08 A2997 RMK AO2 SLP139 T00890078 $

More Conditions Fewer Conditions

10-Day Weather Forecast

Almanac

Astronomy

Sep. 02, 2014 Rise Set
Actual Time 6:25 AM PDT 7:42 PM PDT
Civil Twilight 5:53 AM PDT 8:13 PM PDT
Nautical Twilight 5:15 AM PDT 8:51 PM PDT
Astronomical Twilight 4:34 AM PDT 9:32 PM PDT
Moon 2:43 PM PDT No Moon Set
Length of Visible Light 14h 20m
Length of Day
13h 17m
Tomorrow will be 3m 17s shorter.
Waxing Crescent, 51% of the Moon is Illuminated
Today
Waxing Crescent
Sep 8
Full
Sep 15
Last Quarter
Sep 24
New
Oct 1
First Quarter

Today's Extremes

State Highs State Lows

Community

WunderPhotos

Upload Photos

1,749,648 photos uploaded!

Nearby

Snow Depth

Station Depth Elevation
Sasse Ridge 0 in 4200 ft
Meadows Pass 0 in 3500 ft
Olallie Meadows 0 in 3700 ft
Fish Lake 0 in 3371 ft
Blewett Pass 0 in 4270 ft

Earthquake Activity

City Distance Mag. Time & Date
No recent earthquake activity has been reported nearby.
Minimum magnitude displayed is 2.5.

Coastal Water Temperatures

Place Temperature
No Stations Reporting

Nearby Weather Stations